createdAt,value
2022-11-05T00:01:55.561Z,8.95
2022-11-05T00:04:41.016Z,7.43
2022-11-05T00:07:31.495Z,8.52
2022-11-05T00:10:07.481Z,8.15
2022-11-05T00:12:52.754Z,8.50
2022-11-05T00:15:40.801Z,8.65
2022-11-05T00:18:07.640Z,8.52
2022-11-05T00:20:34.730Z,10.18
2022-11-05T00:23:21.020Z,8.93
2022-11-05T00:25:58.609Z,9.37
2022-11-05T00:28:26.948Z,9.02
2022-11-05T00:30:54.909Z,10.50
2022-11-05T00:33:21.853Z,9.10
2022-11-05T00:35:48.712Z,9.68
2022-11-05T00:38:15.553Z,9.68
2022-11-05T00:40:42.418Z,9.70
2022-11-05T00:43:28.036Z,9.75
2022-11-05T00:45:54.946Z,10.05
2022-11-05T00:48:40.764Z,10.40
2022-11-05T00:51:08.283Z,8.70
2022-11-05T00:53:35.158Z,10.05
2022-11-05T00:56:02.698Z,9.30
2022-11-05T00:58:29.601Z,8.68
2022-11-05T01:00:58.645Z,9.75
2022-11-05T01:03:28.245Z,9.90
2022-11-05T01:06:05.635Z,9.60
2022-11-05T01:08:32.499Z,9.15
2022-11-05T01:10:59.946Z,10.23
2022-11-05T01:13:29.564Z,10.63
2022-11-05T01:15:57.316Z,11.18
2022-11-05T01:18:25.473Z,11.32
2022-11-05T01:20:52.575Z,10.82
2022-11-05T01:23:20.011Z,11.82
2022-11-05T01:25:47.246Z,11.27
2022-11-05T01:28:14.077Z,10.80
2022-11-05T01:30:40.987Z,11.48
2022-11-05T01:33:08.563Z,11.40
2022-11-05T01:35:35.895Z,10.98
2022-11-05T01:38:03.066Z,11.70
2022-11-05T01:40:29.952Z,12.13
2022-11-05T01:42:57.155Z,11.30
2022-11-05T01:45:28.499Z,11.52
2022-11-05T01:48:14.645Z,11.70
2022-11-05T01:50:50.710Z,11.30
2022-11-05T01:53:29.563Z,11.95
2022-11-05T01:56:08.786Z,12.55
2022-11-05T01:59:00.809Z,12.77
2022-11-05T02:01:28.442Z,11.98
2022-11-05T02:04:02.851Z,12.70
2022-11-05T02:06:33.113Z,12.65
2022-11-05T02:09:15.324Z,13.18
2022-11-05T02:11:42.722Z,12.75
2022-11-05T02:14:09.546Z,12.50
2022-11-05T02:16:55.765Z,13.32
2022-11-05T02:20:00.189Z,12.20
2022-11-05T02:22:45.065Z,12.85
2022-11-05T02:25:39.377Z,11.82
2022-11-05T02:28:30.437Z,12.57
2022-11-05T02:31:03.280Z,13.50
2022-11-05T02:33:42.152Z,13.55
2022-11-05T02:36:24.138Z,13.55
2022-11-05T02:39:09.993Z,12.52
2022-11-05T02:42:04.905Z,13.38
2022-11-05T02:44:35.156Z,12.85
2022-11-05T02:47:07.326Z,13.35
2022-11-05T02:49:59.157Z,12.77
2022-11-05T02:52:38.396Z,12.57
2022-11-05T02:55:36.135Z,14.15
2022-11-05T02:58:05.483Z,13.48
2022-11-05T03:00:42.379Z,13.50
2022-11-05T03:03:22.775Z,14.55
2022-11-05T03:05:55.365Z,14.25
2022-11-05T03:08:40.307Z,15.38
2022-11-05T03:11:18.990Z,15.48
2022-11-05T03:14:22.931Z,16.38
2022-11-05T03:17:15.875Z,15.18
2022-11-05T03:19:54.341Z,16.05
2022-11-05T03:22:30.314Z,16.10
2022-11-05T03:25:03.300Z,15.20
2022-11-05T03:27:34.935Z,16.30
2022-11-05T03:30:08.134Z,15.27
2022-11-05T03:32:39.244Z,14.50
2022-11-05T03:35:12.714Z,14.73
2022-11-05T03:37:43.464Z,15.07
2022-11-05T03:40:12.865Z,15.52
2022-11-05T03:42:45.540Z,15.95
2022-11-05T03:45:26.541Z,16.17
2022-11-05T03:47:57.920Z,16.10
2022-11-05T03:50:49.775Z,16.48
2022-11-05T03:53:21.850Z,16.65
2022-11-05T03:56:14.660Z,16.15
2022-11-05T03:58:45.930Z,16.08
2022-11-05T04:01:12.938Z,17.45
2022-11-05T04:03:39.787Z,16.42
2022-11-05T04:06:27.133Z,16.90
2022-11-05T04:09:12.636Z,16.42
2022-11-05T04:11:58.225Z,17.38
2022-11-05T04:14:26.374Z,19.98
2022-11-05T04:17:09.803Z,19.55
2022-11-05T04:20:00.161Z,19.70
2022-11-05T04:22:48.113Z,20.75
2022-11-05T04:25:16.410Z,17.50
2022-11-05T04:27:43.680Z,17.85
2022-11-05T04:30:20.281Z,16.67
2022-11-05T04:33:00.528Z,17.63
2022-11-05T04:35:29.651Z,16.00
2022-11-05T04:37:57.060Z,16.27
2022-11-05T04:40:24.353Z,16.85
2022-11-05T04:42:51.333Z,16.80
2022-11-05T04:45:18.168Z,17.42
2022-11-05T04:47:44.943Z,16.80
2022-11-05T04:50:13.367Z,16.80
2022-11-05T04:52:40.743Z,16.85
2022-11-05T04:55:08.306Z,16.50
2022-11-05T04:57:35.787Z,16.35
2022-11-05T05:00:02.828Z,17.38
2022-11-05T05:02:29.828Z,15.98
2022-11-05T05:04:56.676Z,18.75
2022-11-05T05:07:23.732Z,19.02
2022-11-05T05:09:50.585Z,18.55
2022-11-05T05:12:17.429Z,16.75
2022-11-05T05:14:44.407Z,17.23
2022-11-05T05:17:11.216Z,16.85
2022-11-05T05:19:56.565Z,16.83
2022-11-05T05:22:23.350Z,16.20
2022-11-05T05:24:53.004Z,16.90
2022-11-05T05:27:20.591Z,15.57
2022-11-05T05:29:49.928Z,16.92
2022-11-05T05:32:17.245Z,17.27
2022-11-05T05:34:44.377Z,17.00
2022-11-05T05:37:11.181Z,17.20
2022-11-05T05:39:38.017Z,17.25
2022-11-05T05:42:04.942Z,16.35
2022-11-05T05:44:31.788Z,17.33
2022-11-05T05:46:58.646Z,17.23
2022-11-05T05:49:25.636Z,16.15
2022-11-05T05:51:52.447Z,16.75
2022-11-05T05:54:19.279Z,16.85
2022-11-05T05:56:46.345Z,17.52
2022-11-05T05:59:13.247Z,16.73
2022-11-05T06:01:40.289Z,16.55
2022-11-05T06:04:07.304Z,15.73
2022-11-05T06:06:34.088Z,17.40
2022-11-05T06:09:01.009Z,19.25
2022-11-05T06:11:28.461Z,18.58
2022-11-05T06:13:55.365Z,18.90
2022-11-05T06:16:22.146Z,17.90
2022-11-05T06:18:49.455Z,18.65
2022-11-05T06:21:17.913Z,17.63
2022-11-05T06:23:45.838Z,21.13
2022-11-05T06:26:15.949Z,18.60
2022-11-05T06:28:43.374Z,19.40
2022-11-05T06:31:11.357Z,19.33
2022-11-05T06:33:39.024Z,19.85
2022-11-05T06:36:07.344Z,23.50
2022-11-05T06:38:36.400Z,20.45
2022-11-05T06:41:09.837Z,21.98
2022-11-05T06:43:37.816Z,22.58
2022-11-05T06:46:04.909Z,21.58
2022-11-05T06:48:31.915Z,20.98
2022-11-05T06:50:59.078Z,20.10
2022-11-05T06:53:26.130Z,19.42
2022-11-05T06:55:53.110Z,21.98
2022-11-05T06:58:20.211Z,22.15
2022-11-05T07:00:47.393Z,22.13
2022-11-05T07:03:15.130Z,22.55
2022-11-05T07:05:45.454Z,21.95
2022-11-05T07:08:12.498Z,22.48
2022-11-05T07:10:39.404Z,23.42
2022-11-05T07:13:08.550Z,22.35
2022-11-05T07:15:36.803Z,22.60
2022-11-05T07:18:04.841Z,22.40
2022-11-05T07:20:34.298Z,21.58
2022-11-05T07:23:07.339Z,19.88
2022-11-05T07:25:34.856Z,21.13
2022-11-05T07:28:02.612Z,20.15
2022-11-05T07:30:30.308Z,24.63
2022-11-05T07:32:57.657Z,24.80
2022-11-05T07:35:24.935Z,24.42
2022-11-05T07:37:56.777Z,23.42
2022-11-05T07:40:26.226Z,21.40
2022-11-05T07:42:58.145Z,20.42
2022-11-05T07:45:26.402Z,18.63
2022-11-05T07:47:58.313Z,19.27
2022-11-05T07:50:28.375Z,21.48
2022-11-05T07:53:03.590Z,19.92
2022-11-05T07:55:31.069Z,18.17
2022-11-05T07:57:58.344Z,19.40
2022-11-05T08:00:26.950Z,19.25
2022-11-05T08:03:07.090Z,17.48
2022-11-05T08:05:37.143Z,17.88
2022-11-05T08:08:05.253Z,18.85
2022-11-05T08:10:32.672Z,16.50
2022-11-05T08:12:59.455Z,17.65
2022-11-05T08:15:26.354Z,18.40
2022-11-05T08:18:04.806Z,17.75
2022-11-05T08:20:32.900Z,19.20
2022-11-05T08:22:59.898Z,17.90
2022-11-05T08:25:27.255Z,19.17
2022-11-05T08:27:59.521Z,19.55
2022-11-05T08:30:26.437Z,17.60
2022-11-05T08:33:01.187Z,16.73
2022-11-05T08:35:29.419Z,16.05
2022-11-05T08:37:58.196Z,16.35
2022-11-05T08:40:26.283Z,17.08
2022-11-05T08:42:53.463Z,16.48
2022-11-05T08:45:20.285Z,16.70
2022-11-05T08:47:47.225Z,15.90
2022-11-05T08:50:14.037Z,16.98
2022-11-05T08:52:41.025Z,16.45
2022-11-05T08:55:08.216Z,15.65
2022-11-05T08:57:35.056Z,16.70
2022-11-05T09:00:01.872Z,16.15
2022-11-05T09:02:28.827Z,18.33
2022-11-05T09:04:55.654Z,19.80
2022-11-05T09:07:23.075Z,20.25
2022-11-05T09:09:50.040Z,20.10
2022-11-05T09:12:17.120Z,19.60
2022-11-05T09:14:43.922Z,18.85
2022-11-05T09:17:20.709Z,17.60
2022-11-05T09:19:47.913Z,18.20
2022-11-05T09:22:15.248Z,18.15
2022-11-05T09:24:43.556Z,19.73
2022-11-05T09:27:11.995Z,20.60
2022-11-05T09:29:39.375Z,18.75
2022-11-05T09:32:06.785Z,19.83
2022-11-05T09:34:33.666Z,20.75
2022-11-05T09:37:00.606Z,20.42
2022-11-05T09:39:27.656Z,19.13
2022-11-05T09:41:59.466Z,20.13
2022-11-05T09:44:35.885Z,19.58
2022-11-05T09:47:07.531Z,19.52
2022-11-05T09:49:44.505Z,19.05
2022-11-05T09:52:15.241Z,21.58
2022-11-05T09:54:42.145Z,20.55
2022-11-05T09:57:25.835Z,19.33
2022-11-05T09:59:57.005Z,19.55
2022-11-05T10:02:48.922Z,19.17
2022-11-05T10:05:17.259Z,19.67
2022-11-05T10:07:51.392Z,20.38
2022-11-05T10:10:58.596Z,19.33
2022-11-05T10:13:44.543Z,20.33
2022-11-05T10:16:20.597Z,18.05
2022-11-05T10:19:03.198Z,19.95
2022-11-05T10:22:04.265Z,19.38
2022-11-05T10:24:21.448Z,19.38
2022-11-05T10:26:51.830Z,20.00
2022-11-05T10:29:29.474Z,19.42
2022-11-05T10:32:01.405Z,19.20
2022-11-05T10:34:33.838Z,18.05
2022-11-05T10:37:01.061Z,17.40
2022-11-05T10:39:30.807Z,16.67
2022-11-05T10:41:57.706Z,17.45
2022-11-05T10:44:27.304Z,16.40
2022-11-05T10:47:18.656Z,17.75
2022-11-05T10:50:04.314Z,15.35
2022-11-05T10:52:37.135Z,15.60
2022-11-05T10:55:16.446Z,15.82
2022-11-05T10:57:43.754Z,18.20
2022-11-05T11:00:21.978Z,20.20
2022-11-05T11:02:52.364Z,25.35
2022-11-05T11:05:26.348Z,22.88
2022-11-05T11:08:05.207Z,23.08
2022-11-05T11:10:52.166Z,20.20
2022-11-05T11:13:25.256Z,19.83
2022-11-05T11:15:52.686Z,22.13
2022-11-05T11:18:40.401Z,21.70
2022-11-05T11:21:15.765Z,22.42
2022-11-05T11:23:53.249Z,19.90
2022-11-05T11:26:21.906Z,21.63
2022-11-05T11:29:11.846Z,20.08
2022-11-05T11:31:39.896Z,21.02
2022-11-05T11:34:26.927Z,20.70
2022-11-05T11:37:08.171Z,22.63
2022-11-05T11:39:35.939Z,21.80
2022-11-05T11:42:09.042Z,23.02
2022-11-05T11:44:45.906Z,24.13
2022-11-05T11:47:16.808Z,22.63
2022-11-05T11:50:00.756Z,24.15
2022-11-05T11:52:33.701Z,22.65
2022-11-05T11:55:12.617Z,25.73
2022-11-05T11:58:05.601Z,26.17
2022-11-05T12:00:37.585Z,25.40
2022-11-05T12:03:40.114Z,26.65
2022-11-05T12:06:42.085Z,28.50
2022-11-05T12:09:11.849Z,32.78
2022-11-05T12:11:53.401Z,34.25
2022-11-05T12:14:46.964Z,34.72
2022-11-05T12:17:19.931Z,35.70
2022-11-05T12:20:04.464Z,36.10
2022-11-05T12:22:43.224Z,36.33
2022-11-05T12:25:22.065Z,34.05
2022-11-05T12:28:04.013Z,32.20
2022-11-05T12:30:49.551Z,32.00
2022-11-05T12:33:25.074Z,31.58
2022-11-05T12:36:21.206Z,32.13
2022-11-05T12:39:00.200Z,29.88
2022-11-05T12:41:30.036Z,28.58
2022-11-05T12:44:31.965Z,25.10
2022-11-05T12:47:26.288Z,25.15
2022-11-05T12:50:25.131Z,21.98
2022-11-05T12:53:13.464Z,23.10
2022-11-05T12:55:48.376Z,23.05
2022-11-05T12:58:33.486Z,22.98
2022-11-05T13:01:18.404Z,23.45
2022-11-05T13:03:55.801Z,23.60
2022-11-05T13:06:30.325Z,24.98
2022-11-05T13:09:14.648Z,24.45
2022-11-05T13:11:50.756Z,23.38
2022-11-05T13:14:29.127Z,23.00
2022-11-05T13:17:08.032Z,22.05
2022-11-05T13:19:47.396Z,21.73
2022-11-05T13:22:55.516Z,22.75
2022-11-05T13:28:01.374Z,16.15
2022-11-05T13:30:39.677Z,14.35
2022-11-05T13:33:18.147Z,12.93
2022-11-05T13:35:47.354Z,26.90
2022-11-05T13:38:42.153Z,14.23
2022-11-05T13:41:28.616Z,11.98
2022-11-05T13:44:26.454Z,11.20
2022-11-05T13:47:05.185Z,11.40
2022-11-05T13:49:43.947Z,11.13
2022-11-05T13:52:45.305Z,12.02
2022-11-05T13:55:18.205Z,13.02
2022-11-05T13:57:57.497Z,10.25
2022-11-05T14:00:29.370Z,10.15
2022-11-05T14:02:58.136Z,10.27
2022-11-05T14:05:37.357Z,8.88
2022-11-05T14:08:21.106Z,9.05
2022-11-05T14:11:02.366Z,8.50
2022-11-05T14:13:34.232Z,8.38
2022-11-05T14:16:19.272Z,8.65
2022-11-05T14:18:48.764Z,8.88
2022-11-05T14:21:48.845Z,9.23
2022-11-05T14:24:40.369Z,8.93
2022-11-05T14:27:07.186Z,7.93
2022-11-05T14:29:45.877Z,8.50
2022-11-05T14:32:21.278Z,9.45
2022-11-05T14:34:56.135Z,8.77
2022-11-05T14:37:44.696Z,8.25
2022-11-05T14:40:32.826Z,7.32
2022-11-05T14:43:03.174Z,7.53
2022-11-05T14:45:29.949Z,8.02
2022-11-05T14:48:06.016Z,7.20
2022-11-05T14:50:43.078Z,7.47
2022-11-05T14:53:37.051Z,7.85
2022-11-05T14:56:03.786Z,7.07
2022-11-05T14:58:35.552Z,9.05
2022-11-05T15:01:05.570Z,8.63
2022-11-05T15:03:45.439Z,8.93
2022-11-05T15:06:21.677Z,8.35
2022-11-05T15:08:48.411Z,8.50
2022-11-05T15:11:33.705Z,8.80
2022-11-05T15:14:07.706Z,7.97
2022-11-05T15:16:43.736Z,8.70
2022-11-05T15:19:37.737Z,9.35
2022-11-05T15:22:17.964Z,8.35
2022-11-05T15:24:44.744Z,8.30
2022-11-05T15:27:45.388Z,8.68
2022-11-05T15:30:17.381Z,10.20
2022-11-05T15:32:44.339Z,8.55
2022-11-05T15:35:22.307Z,8.15
2022-11-05T15:37:54.614Z,8.40
2022-11-05T15:40:26.424Z,10.13
2022-11-05T15:43:21.336Z,10.43
2022-11-05T15:46:14.281Z,8.82
2022-11-05T15:48:44.720Z,8.20
2022-11-05T15:51:12.609Z,8.68
2022-11-05T15:54:08.812Z,9.77
2022-11-05T15:56:47.346Z,9.48
2022-11-05T15:59:20.019Z,9.65
2022-11-05T16:01:56.696Z,8.63
2022-11-05T16:04:27.621Z,8.63
2022-11-05T16:06:58.138Z,10.30
2022-11-05T16:09:26.245Z,8.95
2022-11-05T16:12:27.856Z,9.10
2022-11-05T16:14:58.573Z,9.70
2022-11-05T16:17:28.040Z,9.48
2022-11-05T16:19:55.296Z,10.68
2022-11-05T16:22:22.776Z,9.50
2022-11-05T16:24:49.891Z,9.30
2022-11-05T16:27:19.961Z,9.32
2022-11-05T16:29:54.128Z,8.60
2022-11-05T16:32:31.340Z,8.60
2022-11-05T16:35:05.215Z,8.85
2022-11-05T16:37:39.920Z,10.45
2022-11-05T16:40:18.009Z,10.02
2022-11-05T16:42:48.651Z,10.43
2022-11-05T16:45:18.150Z,11.85
2022-11-05T16:47:45.845Z,12.52
2022-11-05T16:50:19.217Z,11.35
2022-11-05T16:52:47.189Z,9.07
2022-11-05T16:55:15.506Z,9.00
2022-11-05T16:57:44.866Z,8.38
2022-11-05T17:00:15.937Z,8.77
2022-11-05T17:02:44.261Z,8.30
2022-11-05T17:05:24.210Z,8.88
2022-11-05T17:07:51.409Z,10.15
2022-11-05T17:10:18.927Z,10.63
2022-11-05T17:12:46.260Z,9.73
2022-11-05T17:15:24.848Z,9.00
2022-11-05T17:17:53.566Z,9.73
2022-11-05T17:20:36.494Z,8.90
2022-11-05T17:23:07.186Z,9.90
2022-11-05T17:25:34.348Z,10.57
2022-11-05T17:28:01.148Z,10.13
2022-11-05T17:30:29.119Z,10.43
2022-11-05T17:32:56.140Z,11.10
2022-11-05T17:35:23.367Z,9.80
2022-11-05T17:37:50.590Z,9.07
2022-11-05T17:40:20.057Z,8.77
2022-11-05T17:42:46.958Z,8.35
2022-11-05T17:45:13.903Z,9.73
2022-11-05T17:47:41.897Z,11.30
2022-11-05T17:50:11.558Z,10.23
2022-11-05T17:52:38.734Z,12.07
2022-11-05T17:55:08.728Z,10.40
2022-11-05T17:57:35.557Z,9.63
2022-11-05T18:00:02.328Z,11.02
2022-11-05T18:02:29.688Z,9.80
2022-11-05T18:04:56.579Z,9.02
2022-11-05T18:07:23.411Z,10.23
2022-11-05T18:09:50.276Z,10.20
2022-11-05T18:12:17.118Z,14.27
2022-11-05T18:14:43.897Z,11.82
2022-11-05T18:17:11.039Z,12.13
2022-11-05T18:19:39.009Z,13.13
2022-11-05T18:22:06.169Z,12.25
2022-11-05T18:24:33.451Z,12.10
2022-11-05T18:27:00.341Z,12.38
2022-11-05T18:29:27.147Z,12.90
2022-11-05T18:31:54.464Z,12.10
2022-11-05T18:34:21.258Z,11.65
2022-11-05T18:36:52.079Z,14.35
2022-11-05T18:39:22.120Z,14.65
2022-11-05T18:41:48.849Z,16.50
2022-11-05T18:44:16.891Z,14.88
2022-11-05T18:46:57.552Z,15.45
2022-11-05T18:49:24.790Z,16.50
2022-11-05T18:51:51.725Z,16.50
2022-11-05T18:54:18.499Z,17.90
2022-11-05T18:56:45.810Z,18.58
2022-11-05T19:02:05.513Z,19.02
2022-11-05T19:04:32.517Z,17.70
2022-11-05T19:07:04.375Z,17.25
2022-11-05T19:09:31.898Z,18.38
2022-11-05T19:11:58.898Z,18.23
2022-11-05T19:14:25.719Z,16.95
2022-11-05T19:16:52.488Z,17.63
2022-11-05T19:19:19.351Z,16.25
2022-11-05T19:21:46.169Z,14.57
2022-11-05T19:24:16.630Z,14.73
2022-11-05T19:26:44.561Z,16.63
2022-11-05T19:29:11.726Z,15.63
2022-11-05T19:31:38.909Z,16.85
2022-11-05T19:34:05.807Z,17.83
2022-11-05T19:36:33.921Z,15.57
2022-11-05T19:39:03.857Z,17.17
2022-11-05T19:41:31.148Z,18.10
2022-11-05T19:43:58.908Z,18.70
2022-11-05T19:46:26.179Z,18.52
2022-11-05T19:48:53.648Z,16.65
2022-11-05T19:51:30.614Z,15.95
2022-11-05T19:54:00.131Z,16.52
2022-11-05T19:56:30.579Z,15.25
2022-11-05T19:58:57.861Z,13.75
2022-11-05T20:01:27.145Z,13.48
2022-11-05T20:03:55.571Z,14.30
2022-11-05T20:06:28.654Z,12.55
2022-11-05T20:11:45.480Z,15.32
2022-11-05T20:14:12.351Z,15.60
2022-11-05T20:16:40.163Z,16.48
2022-11-05T20:19:10.278Z,14.70
2022-11-05T20:21:37.612Z,24.05
2022-11-05T20:24:05.257Z,16.25
2022-11-05T20:26:32.226Z,12.82
2022-11-05T20:28:59.238Z,12.55
2022-11-05T20:31:26.127Z,13.10
2022-11-05T20:33:53.830Z,13.32
2022-11-05T20:36:23.073Z,11.27
2022-11-05T20:38:55.466Z,13.30
2022-11-05T20:41:23.198Z,14.27
2022-11-05T20:43:51.008Z,13.15
2022-11-05T20:46:19.688Z,12.90
2022-11-05T20:48:46.752Z,15.65
2022-11-05T20:51:16.589Z,15.65
2022-11-05T20:53:44.005Z,13.70
2022-11-05T20:56:22.817Z,13.75
2022-11-05T20:58:50.361Z,10.02
2022-11-05T21:01:18.412Z,9.50
2022-11-05T21:03:46.589Z,9.40
2022-11-05T21:06:14.079Z,10.18
2022-11-05T21:08:40.908Z,9.50
2022-11-05T21:11:07.877Z,10.45
2022-11-05T21:13:35.977Z,9.00
2022-11-05T21:16:05.948Z,7.70
2022-11-05T21:18:35.143Z,9.60
2022-11-05T21:21:09.357Z,7.80
2022-11-05T21:23:36.248Z,9.63
2022-11-05T21:26:05.447Z,8.30
2022-11-05T21:28:32.918Z,9.70
2022-11-05T21:31:03.727Z,10.63
2022-11-05T21:33:30.685Z,9.50
2022-11-05T21:35:58.108Z,8.75
2022-11-05T21:38:25.611Z,9.15
2022-11-05T21:40:52.438Z,7.32
2022-11-05T21:43:19.259Z,8.32
2022-11-05T21:45:46.087Z,8.75
2022-11-05T21:48:15.462Z,9.35
2022-11-05T21:51:01.155Z,9.65
2022-11-05T21:53:46.644Z,9.15
2022-11-05T21:56:42.470Z,9.77
2022-11-05T21:59:31.975Z,10.00
2022-11-05T22:02:02.135Z,9.18
2022-11-05T22:04:37.364Z,8.90
2022-11-05T22:07:05.337Z,9.38
2022-11-05T22:09:32.265Z,9.55
2022-11-05T22:12:00.305Z,9.88
2022-11-05T22:14:28.467Z,9.40
2022-11-05T22:16:56.091Z,9.95
2022-11-05T22:19:23.968Z,9.20
2022-11-05T22:21:50.964Z,10.57
2022-11-05T22:24:18.843Z,10.23
2022-11-05T22:26:46.476Z,9.18
2022-11-05T22:29:22.442Z,9.38
2022-11-05T22:33:36.436Z,9.02
2022-11-05T22:36:04.255Z,7.57
2022-11-05T22:38:31.505Z,8.02
2022-11-05T22:40:58.457Z,8.38
2022-11-05T22:43:25.214Z,9.27
2022-11-05T22:45:51.996Z,7.97
2022-11-05T22:48:18.938Z,8.95
2022-11-05T22:50:45.759Z,10.05
2022-11-05T22:53:12.547Z,11.40
2022-11-05T22:55:40.095Z,12.07
2022-11-05T22:58:06.925Z,12.32
2022-11-05T23:00:36.109Z,12.18
2022-11-05T23:03:03.250Z,13.90
2022-11-05T23:05:30.187Z,13.50
2022-11-05T23:08:16.146Z,14.13
2022-11-05T23:11:01.424Z,15.20
2022-11-05T23:13:28.696Z,13.95
2022-11-05T23:16:14.380Z,14.05
2022-11-05T23:18:59.944Z,14.02
2022-11-05T23:21:45.489Z,14.85
2022-11-05T23:24:13.809Z,13.98
2022-11-05T23:26:52.893Z,15.30
2022-11-05T23:29:25.323Z,14.90
2022-11-05T23:32:11.375Z,15.25
2022-11-05T23:34:38.847Z,15.05
2022-11-05T23:37:27.009Z,16.17
2022-11-05T23:39:53.967Z,15.55
2022-11-05T23:42:39.626Z,15.40
2022-11-05T23:45:25.823Z,14.68
2022-11-05T23:48:12.191Z,15.73
2022-11-05T23:50:40.352Z,15.23
2022-11-05T23:53:08.192Z,14.73
2022-11-05T23:55:35.405Z,15.25
2022-11-05T23:58:02.364Z,13.15
